Flight Track Log - Related Links

Times and Time Zones

All times are in EDT time to prevent confusion due to time zone crossing. See the LXJ342 flight status page for this flight to view local times or setup timezone preferences in your user account.

Time Position Orientation Groundspeed Altitude Reporting Facility
EDT Latitude Longitude Course Direction KTS MPH feet Rate Location/Type
Tue 12:14:40 PM 39.5500 -104.8500 229° Southwest 186 214 7,600  Level Denver TRACON
Tue 12:15:34 PM 39.5167 -104.9000 229° Southwest 249 287 8,400 1,800 Climbing Denver TRACON
Tue 12:16:40 PM 39.5500 -104.9833 297° West 232 267 11,200 1,762 Climbing Denver TRACON
Tue 12:17:40 PM 39.5833 -105.0667 297° West 236 272 12,100 1,800 Climbing Denver TRACON
Tue 12:18:40 PM 39.6000 -105.1500 285° West 258 297 14,800 3,000 Climbing Denver TRACON
Tue 12:19:40 PM 39.6167 -105.2500 282° West 291 335 18,100 3,133 Climbing Denver TRACON
Tue 12:20:10 PM 39.6269 -105.2939 287° West 291 335 19,500 2,283 Climbing Denver Center
Tue 12:21:12 PM 39.6486 -105.4097 284° West 327 376 21,600 1,210 Climbing Denver Center
Tue 12:22:14 PM 39.6781 -105.5561 285° West 388 447 22,000 194 Climbing Denver Center
Tue 12:23:16 PM 39.6964 -105.6958 280° West 393 452 22,000  Level Denver Center
Tue 12:24:18 PM 39.6764 -105.8236 259° West 357 411 22,000  Level Denver Center
Tue 12:25:20 PM 39.6672 -105.9519 265° West 357 411 22,000 -290 Level Denver Center
Tue 12:26:22 PM 39.6528 -106.0803 262° West 360 414 21,400 -871 Descending Denver Center
Tue 12:27:24 PM 39.6392 -106.2058 262° West 353 406 20,200 -677 Descending Denver Center
Tue 12:28:26 PM 39.6136 -106.3522 257° West 349 402 20,000 -97 Descending Denver Center
Tue 12:29:28 PM 39.5756 -106.4722 248° West 359 413 20,000  Level Denver Center
Tue 12:30:30 PM 39.5375 -106.5900 247° West 347 399 20,000  Level Denver Center
Tue 12:31:33 PM 39.5036 -106.6956 247° West 333 383 20,000 -576 Level Denver Center
Tue 12:32:35 PM 39.4828 -106.8278 259° West 335 386 18,800 -1,935 Descending Denver Center
Tue 12:33:37 PM 39.4872 -106.9367 273° West 317 365 16,000 -2,371 Descending Denver Center
Tue 12:34:39 PM 39.4222 -106.9869 211° Southwest 287 330 13,900 -2,129 Descending Denver Center
Tue 12:35:41 PM 39.3608 -106.9661 165° South 245 282 11,600 -1,935 Descending Denver Center
Tue 12:36:43 PM 39.3114 -106.9344 154° Southeast 220 253 9,900 -1,548 Descending Denver Center
Tue 12:37:45 PM 39.2756 -106.8936 139° Southeast 191 220 8,400 -1,452 Descending Denver Center

Login

Don't have an account? Register now (free) for customized features, flight alerts, and more!